sensor_id;sensor_type;location;lat;lon;timestamp;pressure;altitude;pressure_sealevel;temperature;humidity
69351;BME280;57106;51.446;-2.606;2023-03-04T00:01:20;103107.22;;;6.15;59.78
69351;BME280;57106;51.446;-2.606;2023-03-04T00:03:45;103105.68;;;6.01;59.83
69351;BME280;57106;51.446;-2.606;2023-03-04T00:06:10;103108.17;;;6.03;60.08
69351;BME280;57106;51.446;-2.606;2023-03-04T00:08:35;103107.11;;;6.11;59.80
69351;BME280;57106;51.446;-2.606;2023-03-04T00:11:01;103100.79;;;6.07;59.89
69351;BME280;57106;51.446;-2.606;2023-03-04T00:13:26;103101.45;;;6.02;60.15
69351;BME280;57106;51.446;-2.606;2023-03-04T00:15:52;103098.10;;;5.90;60.47
69351;BME280;57106;51.446;-2.606;2023-03-04T00:18:18;103100.65;;;5.82;60.74
69351;BME280;57106;51.446;-2.606;2023-03-04T00:20:43;103099.84;;;6.09;60.11
69351;BME280;57106;51.446;-2.606;2023-03-04T00:23:08;103103.41;;;6.14;59.94
69351;BME280;57106;51.446;-2.606;2023-03-04T00:25:33;103103.26;;;6.23;59.78
69351;BME280;57106;51.446;-2.606;2023-03-04T00:27:59;103105.65;;;6.31;59.55
69351;BME280;57106;51.446;-2.606;2023-03-04T00:30:24;103102.36;;;6.24;59.43
69351;BME280;57106;51.446;-2.606;2023-03-04T00:32:50;103098.42;;;6.39;58.92
69351;BME280;57106;51.446;-2.606;2023-03-04T00:35:16;103098.35;;;6.36;59.05
69351;BME280;57106;51.446;-2.606;2023-03-04T00:37:41;103097.22;;;6.07;59.66
69351;BME280;57106;51.446;-2.606;2023-03-04T00:40:08;103095.74;;;6.00;59.71
69351;BME280;57106;51.446;-2.606;2023-03-04T00:42:32;103100.07;;;6.23;59.28
69351;BME280;57106;51.446;-2.606;2023-03-04T00:44:57;103098.77;;;5.99;60.12
69351;BME280;57106;51.446;-2.606;2023-03-04T00:47:22;103097.16;;;5.91;60.22
69351;BME280;57106;51.446;-2.606;2023-03-04T00:57:04;103094.64;;;6.30;58.32
69351;BME280;57106;51.446;-2.606;2023-03-04T01:01:55;103095.83;;;6.30;57.99
69351;BME280;57106;51.446;-2.606;2023-03-04T01:04:21;103097.27;;;6.57;57.29
69351;BME280;57106;51.446;-2.606;2023-03-04T01:06:47;103101.63;;;6.33;57.67
69351;BME280;57106;51.446;-2.606;2023-03-04T01:09:13;103093.77;;;6.35;57.50
69351;BME280;57106;51.446;-2.606;2023-03-04T01:11:38;103092.56;;;6.41;57.42
69351;BME280;57106;51.446;-2.606;2023-03-04T01:14:03;103090.70;;;6.47;56.94
69351;BME280;57106;51.446;-2.606;2023-03-04T01:16:30;103095.14;;;6.34;56.79
69351;BME280;57106;51.446;-2.606;2023-03-04T01:18:55;103098.37;;;6.39;56.91
69351;BME280;57106;51.446;-2.606;2023-03-04T01:21:20;103094.19;;;6.39;56.79
69351;BME280;57106;51.446;-2.606;2023-03-04T01:23:46;103099.34;;;6.36;57.22
69351;BME280;57106;51.446;-2.606;2023-03-04T01:26:12;103098.32;;;6.17;57.55
69351;BME280;57106;51.446;-2.606;2023-03-04T01:28:38;103092.04;;;6.24;57.51
69351;BME280;57106;51.446;-2.606;2023-03-04T01:31:03;103088.03;;;6.46;56.87
69351;BME280;57106;51.446;-2.606;2023-03-04T01:33:30;103087.83;;;6.52;56.99
69351;BME280;57106;51.446;-2.606;2023-03-04T01:35:54;103090.24;;;6.40;57.23
69351;BME280;57106;51.446;-2.606;2023-03-04T01:38:20;103095.42;;;6.05;57.91
69351;BME280;57106;51.446;-2.606;2023-03-04T01:40:46;103088.38;;;6.30;57.53
69351;BME280;57106;51.446;-2.606;2023-03-04T01:43:17;103087.60;;;6.34;57.56
69351;BME280;57106;51.446;-2.606;2023-03-04T01:45:37;103084.35;;;6.46;57.25
69351;BME280;57106;51.446;-2.606;2023-03-04T01:48:03;103086.49;;;6.44;57.31
69351;BME280;57106;51.446;-2.606;2023-03-04T01:50:31;103087.52;;;6.40;57.52
69351;BME280;57106;51.446;-2.606;2023-03-04T01:52:54;103088.20;;;6.28;58.06
69351;BME280;57106;51.446;-2.606;2023-03-04T01:55:22;103087.26;;;6.26;58.29
69351;BME280;57106;51.446;-2.606;2023-03-04T01:57:46;103083.63;;;6.38;58.26
69351;BME280;57106;51.446;-2.606;2023-03-04T02:00:19;103078.63;;;6.36;58.24
69351;BME280;57106;51.446;-2.606;2023-03-04T02:02:36;103077.03;;;6.36;58.29
69351;BME280;57106;51.446;-2.606;2023-03-04T02:05:02;103071.68;;;6.38;58.35
69351;BME280;57106;51.446;-2.606;2023-03-04T02:07:28;103071.81;;;6.18;58.64
69351;BME280;57106;51.446;-2.606;2023-03-04T02:09:54;103072.40;;;6.17;59.10
69351;BME280;57106;51.446;-2.606;2023-03-04T02:12:19;103071.35;;;6.23;58.58
69351;BME280;57106;51.446;-2.606;2023-03-04T02:14:45;103077.10;;;6.47;58.03
69351;BME280;57106;51.446;-2.606;2023-03-04T02:17:11;103076.26;;;6.33;58.24
69351;BME280;57106;51.446;-2.606;2023-03-04T02:19:41;103073.56;;;6.54;58.09
69351;BME280;57106;51.446;-2.606;2023-03-04T02:22:01;103073.19;;;6.42;57.75
69351;BME280;57106;51.446;-2.606;2023-03-04T02:24:32;103074.18;;;6.26;57.55
69351;BME280;57106;51.446;-2.606;2023-03-04T02:26:53;103070.00;;;6.24;57.48
69351;BME280;57106;51.446;-2.606;2023-03-04T02:29:18;103067.60;;;6.31;57.31
69351;BME280;57106;51.446;-2.606;2023-03-04T02:31:46;103064.19;;;6.25;56.92
69351;BME280;57106;51.446;-2.606;2023-03-04T02:34:12;103064.38;;;6.32;56.95
69351;BME280;57106;51.446;-2.606;2023-03-04T02:36:35;103063.48;;;6.30;56.96
69351;BME280;57106;51.446;-2.606;2023-03-04T02:39:04;103060.19;;;6.49;56.18
69351;BME280;57106;51.446;-2.606;2023-03-04T02:41:28;103058.41;;;6.28;56.96
69351;BME280;57106;51.446;-2.606;2023-03-04T02:43:54;103052.43;;;6.13;57.59
69351;BME280;57106;51.446;-2.606;2023-03-04T02:46:18;103049.95;;;6.32;57.31
69351;BME280;57106;51.446;-2.606;2023-03-04T02:48:44;103047.23;;;6.39;57.20
69351;BME280;57106;51.446;-2.606;2023-03-04T02:51:10;103047.58;;;6.28;57.62
69351;BME280;57106;51.446;-2.606;2023-03-04T02:56:01;103049.43;;;6.36;57.34
69351;BME280;57106;51.446;-2.606;2023-03-04T02:58:27;103047.30;;;6.24;57.06
69351;BME280;57106;51.446;-2.606;2023-03-04T03:00:56;103044.09;;;6.14;57.14
69351;BME280;57106;51.446;-2.606;2023-03-04T03:03:18;103042.53;;;6.37;56.66
69351;BME280;57106;51.446;-2.606;2023-03-04T03:05:44;103042.29;;;6.50;56.92
69351;BME280;57106;51.446;-2.606;2023-03-04T03:08:10;103039.85;;;6.44;56.95
69351;BME280;57106;51.446;-2.606;2023-03-04T03:10:36;103044.94;;;6.29;57.07
69351;BME280;57106;51.446;-2.606;2023-03-04T03:13:01;103042.66;;;6.36;57.18
69351;BME280;57106;51.446;-2.606;2023-03-04T03:15:26;103040.77;;;6.24;57.07
69351;BME280;57106;51.446;-2.606;2023-03-04T03:17:52;103036.69;;;6.01;57.71
69351;BME280;57106;51.446;-2.606;2023-03-04T03:20:18;103041.34;;;5.96;57.70
69351;BME280;57106;51.446;-2.606;2023-03-04T03:22:44;103037.80;;;6.01;57.77
69351;BME280;57106;51.446;-2.606;2023-03-04T03:25:11;103042.51;;;6.10;57.28
69351;BME280;57106;51.446;-2.606;2023-03-04T03:27:35;103044.74;;;6.04;57.47
69351;BME280;57106;51.446;-2.606;2023-03-04T03:30:01;103050.79;;;5.93;58.00
69351;BME280;57106;51.446;-2.606;2023-03-04T03:32:27;103048.35;;;6.15;57.39
69351;BME280;57106;51.446;-2.606;2023-03-04T03:34:52;103049.24;;;6.05;57.94
69351;BME280;57106;51.446;-2.606;2023-03-04T03:37:18;103047.44;;;6.18;57.80
69351;BME280;57106;51.446;-2.606;2023-03-04T03:39:44;103050.57;;;6.16;57.40
69351;BME280;57106;51.446;-2.606;2023-03-04T03:42:10;103048.68;;;6.11;57.20
69351;BME280;57106;51.446;-2.606;2023-03-04T03:44:36;103051.18;;;6.29;57.02
69351;BME280;57106;51.446;-2.606;2023-03-04T03:47:01;103050.84;;;6.16;57.32
69351;BME280;57106;51.446;-2.606;2023-03-04T03:49:27;103047.60;;;6.14;57.56
69351;BME280;57106;51.446;-2.606;2023-03-04T03:51:52;103050.41;;;6.37;57.11
69351;BME280;57106;51.446;-2.606;2023-03-04T03:54:18;103051.84;;;6.52;56.76
69351;BME280;57106;51.446;-2.606;2023-03-04T03:56:44;103052.03;;;6.55;56.82
69351;BME280;57106;51.446;-2.606;2023-03-04T03:59:09;103053.58;;;6.47;56.88
69351;BME280;57106;51.446;-2.606;2023-03-04T04:01:35;103053.23;;;6.36;56.91
69351;BME280;57106;51.446;-2.606;2023-03-04T04:04:01;103049.11;;;6.17;57.08
69351;BME280;57106;51.446;-2.606;2023-03-04T04:06:27;103046.57;;;6.16;57.47
69351;BME280;57106;51.446;-2.606;2023-03-04T04:08:52;103051.44;;;6.27;57.32
69351;BME280;57106;51.446;-2.606;2023-03-04T04:11:18;103050.88;;;6.09;57.75
69351;BME280;57106;51.446;-2.606;2023-03-04T04:13:44;103052.33;;;6.39;57.03
69351;BME280;57106;51.446;-2.606;2023-03-04T04:16:10;103054.99;;;6.37;57.16
69351;BME280;57106;51.446;-2.606;2023-03-04T04:18:35;103053.00;;;6.17;57.29
69351;BME280;57106;51.446;-2.606;2023-03-04T04:21:01;103059.38;;;6.45;56.76
69351;BME280;57106;51.446;-2.606;2023-03-04T04:23:26;103058.45;;;6.35;56.97
69351;BME280;57106;51.446;-2.606;2023-03-04T04:25:54;103059.13;;;6.21;57.51
69351;BME280;57106;51.446;-2.606;2023-03-04T04:28:18;103058.20;;;6.26;57.69
69351;BME280;57106;51.446;-2.606;2023-03-04T04:30:45;103056.73;;;6.23;57.56
69351;BME280;57106;51.446;-2.606;2023-03-04T04:33:09;103058.12;;;6.54;57.05
69351;BME280;57106;51.446;-2.606;2023-03-04T04:35:36;103060.11;;;6.48;57.29
69351;BME280;57106;51.446;-2.606;2023-03-04T04:38:01;103062.74;;;6.58;57.20
69351;BME280;57106;51.446;-2.606;2023-03-04T04:40:27;103064.42;;;6.36;57.46
69351;BME280;57106;51.446;-2.606;2023-03-04T04:42:52;103065.20;;;6.31;57.43
69351;BME280;57106;51.446;-2.606;2023-03-04T04:45:18;103064.40;;;6.39;57.20
69351;BME280;57106;51.446;-2.606;2023-03-04T04:47:44;103066.87;;;6.63;56.90
69351;BME280;57106;51.446;-2.606;2023-03-04T04:52:35;103070.88;;;6.70;56.50
69351;BME280;57106;51.446;-2.606;2023-03-04T04:59:52;103072.11;;;6.40;57.75
69351;BME280;57106;51.446;-2.606;2023-03-04T05:02:18;103072.01;;;6.35;58.12
69351;BME280;57106;51.446;-2.606;2023-03-04T05:04:44;103070.34;;;6.44;57.64
69351;BME280;57106;51.446;-2.606;2023-03-04T05:07:09;103068.53;;;6.55;57.24
69351;BME280;57106;51.446;-2.606;2023-03-04T05:09:36;103065.04;;;6.52;57.57
69351;BME280;57106;51.446;-2.606;2023-03-04T05:12:01;103064.96;;;6.44;58.01
69351;BME280;57106;51.446;-2.606;2023-03-04T05:14:26;103064.73;;;6.50;57.71
69351;BME280;57106;51.446;-2.606;2023-03-04T05:16:52;103068.40;;;6.63;57.43
69351;BME280;57106;51.446;-2.606;2023-03-04T05:19:18;103066.82;;;6.63;57.13
69351;BME280;57106;51.446;-2.606;2023-03-04T05:21:43;103072.43;;;6.85;56.58
69351;BME280;57106;51.446;-2.606;2023-03-04T05:24:09;103074.44;;;6.70;56.85
69351;BME280;57106;51.446;-2.606;2023-03-04T05:26:35;103075.50;;;6.65;56.87
69351;BME280;57106;51.446;-2.606;2023-03-04T05:29:00;103080.16;;;6.59;57.40
69351;BME280;57106;51.446;-2.606;2023-03-04T05:31:26;103081.66;;;6.39;58.03
69351;BME280;57106;51.446;-2.606;2023-03-04T05:33:51;103084.32;;;6.64;57.44
69351;BME280;57106;51.446;-2.606;2023-03-04T05:36:17;103081.02;;;6.37;58.13
69351;BME280;57106;51.446;-2.606;2023-03-04T05:38:43;103081.01;;;6.56;58.10
69351;BME280;57106;51.446;-2.606;2023-03-04T05:41:09;103082.85;;;6.36;58.18
69351;BME280;57106;51.446;-2.606;2023-03-04T05:43:35;103086.68;;;6.18;59.04
69351;BME280;57106;51.446;-2.606;2023-03-04T05:46:01;103083.89;;;6.41;58.37
69351;BME280;57106;51.446;-2.606;2023-03-04T05:48:26;103081.61;;;5.99;59.23
69351;BME280;57106;51.446;-2.606;2023-03-04T05:50:53;103082.44;;;6.08;59.34
69351;BME280;57106;51.446;-2.606;2023-03-04T05:53:17;103082.28;;;6.01;59.26
69351;BME280;57106;51.446;-2.606;2023-03-04T05:55:45;103080.27;;;5.97;59.59
69351;BME280;57106;51.446;-2.606;2023-03-04T05:58:09;103084.99;;;5.92;59.58
69351;BME280;57106;51.446;-2.606;2023-03-04T06:00:35;103085.56;;;6.09;59.28
69351;BME280;57106;51.446;-2.606;2023-03-04T06:03:00;103082.70;;;6.06;59.59
69351;BME280;57106;51.446;-2.606;2023-03-04T06:05:25;103076.35;;;6.08;59.50
69351;BME280;57106;51.446;-2.606;2023-03-04T06:07:51;103076.15;;;5.95;59.22
69351;BME280;57106;51.446;-2.606;2023-03-04T06:10:17;103081.83;;;5.95;59.19
69351;BME280;57106;51.446;-2.606;2023-03-04T06:12:42;103079.77;;;5.88;59.00
69351;BME280;57106;51.446;-2.606;2023-03-04T06:15:08;103083.80;;;5.91;59.09
69351;BME280;57106;51.446;-2.606;2023-03-04T06:17:34;103080.14;;;6.07;58.61
69351;BME280;57106;51.446;-2.606;2023-03-04T06:19:59;103076.34;;;5.82;59.16
69351;BME280;57106;51.446;-2.606;2023-03-04T06:22:24;103076.51;;;5.55;59.76
69351;BME280;57106;51.446;-2.606;2023-03-04T06:24:50;103077.42;;;5.80;59.36
69351;BME280;57106;51.446;-2.606;2023-03-04T06:27:15;103079.78;;;5.98;58.57
69351;BME280;57106;51.446;-2.606;2023-03-04T06:29:41;103077.82;;;5.85;58.64
69351;BME280;57106;51.446;-2.606;2023-03-04T06:32:06;103079.17;;;5.94;58.33
69351;BME280;57106;51.446;-2.606;2023-03-04T06:34:32;103082.13;;;5.87;58.39
69351;BME280;57106;51.446;-2.606;2023-03-04T06:36:57;103087.30;;;5.99;58.43
69351;BME280;57106;51.446;-2.606;2023-03-04T06:39:23;103087.22;;;5.83;58.69
69351;BME280;57106;51.446;-2.606;2023-03-04T06:41:48;103089.28;;;6.05;58.22
69351;BME280;57106;51.446;-2.606;2023-03-04T06:44:14;103088.91;;;5.68;58.91
69351;BME280;57106;51.446;-2.606;2023-03-04T06:46:40;103092.77;;;5.71;58.74
69351;BME280;57106;51.446;-2.606;2023-03-04T06:49:05;103097.74;;;5.81;58.88
69351;BME280;57106;51.446;-2.606;2023-03-04T06:51:34;103100.60;;;5.82;58.56
69351;BME280;57106;51.446;-2.606;2023-03-04T06:56:22;103106.81;;;5.81;58.04
69351;BME280;57106;51.446;-2.606;2023-03-04T06:58:48;103108.08;;;5.73;58.31
69351;BME280;57106;51.446;-2.606;2023-03-04T07:01:15;103109.50;;;5.42;58.58
69351;BME280;57106;51.446;-2.606;2023-03-04T07:03:40;103109.97;;;5.32;59.04
69351;BME280;57106;51.446;-2.606;2023-03-04T07:06:05;103108.20;;;5.47;58.81
69351;BME280;57106;51.446;-2.606;2023-03-04T07:08:31;103116.03;;;5.58;58.67
69351;BME280;57106;51.446;-2.606;2023-03-04T07:10:57;103118.03;;;5.53;59.05
69351;BME280;57106;51.446;-2.606;2023-03-04T07:13:22;103120.24;;;5.39;59.35
69351;BME280;57106;51.446;-2.606;2023-03-04T07:15:48;103121.81;;;5.56;58.73
69351;BME280;57106;51.446;-2.606;2023-03-04T07:18:13;103120.05;;;5.63;58.63
69351;BME280;57106;51.446;-2.606;2023-03-04T07:20:39;103119.42;;;5.51;59.08
69351;BME280;57106;51.446;-2.606;2023-03-04T07:23:04;103127.71;;;5.71;58.57
69351;BME280;57106;51.446;-2.606;2023-03-04T07:25:30;103125.65;;;5.60;58.64
69351;BME280;57106;51.446;-2.606;2023-03-04T07:27:56;103126.64;;;5.83;58.42
69351;BME280;57106;51.446;-2.606;2023-03-04T07:30:21;103129.97;;;5.79;58.42
69351;BME280;57106;51.446;-2.606;2023-03-04T07:35:13;103131.38;;;5.62;58.56
69351;BME280;57106;51.446;-2.606;2023-03-04T07:37:39;103127.32;;;5.32;59.27
69351;BME280;57106;51.446;-2.606;2023-03-04T07:40:06;103126.74;;;5.61;58.81
69351;BME280;57106;51.446;-2.606;2023-03-04T07:42:30;103127.33;;;5.55;59.05
69351;BME280;57106;51.446;-2.606;2023-03-04T07:44:55;103128.47;;;5.70;58.54
69351;BME280;57106;51.446;-2.606;2023-03-04T07:47:21;103124.19;;;5.46;60.33
69351;BME280;57106;51.446;-2.606;2023-03-04T07:49:47;103124.69;;;5.54;59.10
69351;BME280;57106;51.446;-2.606;2023-03-04T07:52:13;103125.69;;;5.84;58.47
69351;BME280;57106;51.446;-2.606;2023-03-04T07:54:39;103133.25;;;5.74;58.63
69351;BME280;57106;51.446;-2.606;2023-03-04T07:57:05;103124.41;;;5.40;59.39
69351;BME280;57106;51.446;-2.606;2023-03-04T07:59:30;103128.11;;;5.67;59.09
69351;BME280;57106;51.446;-2.606;2023-03-04T08:01:56;103128.90;;;5.30;59.86
69351;BME280;57106;51.446;-2.606;2023-03-04T08:04:22;103136.74;;;5.47;59.42
69351;BME280;57106;51.446;-2.606;2023-03-04T08:06:47;103139.92;;;5.80;58.72
69351;BME280;57106;51.446;-2.606;2023-03-04T08:09:13;103140.80;;;5.79;58.82
69351;BME280;57106;51.446;-2.606;2023-03-04T08:11:39;103141.83;;;5.94;58.47
69351;BME280;57106;51.446;-2.606;2023-03-04T08:14:05;103144.39;;;6.03;57.93
69351;BME280;57106;51.446;-2.606;2023-03-04T08:16:30;103144.31;;;5.97;58.22
69351;BME280;57106;51.446;-2.606;2023-03-04T08:18:57;103149.85;;;5.65;59.17
69351;BME280;57106;51.446;-2.606;2023-03-04T08:21:23;103149.81;;;5.74;58.88
69351;BME280;57106;51.446;-2.606;2023-03-04T08:23:48;103146.88;;;6.02;58.53
69351;BME280;57106;51.446;-2.606;2023-03-04T08:26:19;103150.29;;;6.08;58.35
69351;BME280;57106;51.446;-2.606;2023-03-04T08:28:39;103148.93;;;6.26;57.72
69351;BME280;57106;51.446;-2.606;2023-03-04T08:31:04;103147.30;;;6.15;57.93
69351;BME280;57106;51.446;-2.606;2023-03-04T08:33:30;103150.77;;;5.96;58.22
69351;BME280;57106;51.446;-2.606;2023-03-04T08:35:55;103152.72;;;5.74;58.74
69351;BME280;57106;51.446;-2.606;2023-03-04T08:38:21;103153.77;;;5.81;59.07
69351;BME280;57106;51.446;-2.606;2023-03-04T08:40:51;103156.10;;;5.96;58.88
69351;BME280;57106;51.446;-2.606;2023-03-04T08:43:12;103156.69;;;5.95;58.38
69351;BME280;57106;51.446;-2.606;2023-03-04T08:45:45;103152.32;;;5.75;59.01
69351;BME280;57106;51.446;-2.606;2023-03-04T08:48:03;103150.88;;;6.11;58.41
69351;BME280;57106;51.446;-2.606;2023-03-04T08:50:29;103153.27;;;5.84;58.51
69351;BME280;57106;51.446;-2.606;2023-03-04T08:52:54;103148.25;;;6.01;58.76
69351;BME280;57106;51.446;-2.606;2023-03-04T08:55:20;103151.19;;;6.17;58.00
69351;BME280;57106;51.446;-2.606;2023-03-04T08:57:45;103154.33;;;6.08;58.48
69351;BME280;57106;51.446;-2.606;2023-03-04T09:00:11;103158.71;;;5.97;58.38
69351;BME280;57106;51.446;-2.606;2023-03-04T09:02:36;103157.86;;;6.08;58.55
69351;BME280;57106;51.446;-2.606;2023-03-04T09:05:01;103156.86;;;6.13;58.28
69351;BME280;57106;51.446;-2.606;2023-03-04T09:07:27;103162.74;;;6.05;58.57
69351;BME280;57106;51.446;-2.606;2023-03-04T09:09:52;103159.63;;;6.14;58.40
69351;BME280;57106;51.446;-2.606;2023-03-04T09:12:17;103163.04;;;6.15;58.37
69351;BME280;57106;51.446;-2.606;2023-03-04T09:14:43;103171.87;;;5.82;58.77
69351;BME280;57106;51.446;-2.606;2023-03-04T09:17:08;103172.46;;;5.73;59.14
69351;BME280;57106;51.446;-2.606;2023-03-04T09:19:41;103171.24;;;5.68;59.33
69351;BME280;57106;51.446;-2.606;2023-03-04T09:21:59;103171.57;;;5.56;59.47
69351;BME280;57106;51.446;-2.606;2023-03-04T09:24:25;103169.91;;;5.74;59.08
69351;BME280;57106;51.446;-2.606;2023-03-04T09:26:51;103167.91;;;5.56;59.74
69351;BME280;57106;51.446;-2.606;2023-03-04T09:29:16;103170.99;;;5.65;59.71
69351;BME280;57106;51.446;-2.606;2023-03-04T09:31:42;103169.87;;;5.57;59.84
69351;BME280;57106;51.446;-2.606;2023-03-04T09:34:06;103167.33;;;5.75;59.18
69351;BME280;57106;51.446;-2.606;2023-03-04T09:36:32;103164.11;;;5.59;59.37
69351;BME280;57106;51.446;-2.606;2023-03-04T09:38:58;103167.86;;;5.68;59.23
69351;BME280;57106;51.446;-2.606;2023-03-04T09:41:25;103166.55;;;5.57;59.47
69351;BME280;57106;51.446;-2.606;2023-03-04T09:43:48;103165.11;;;6.18;58.52
69351;BME280;57106;51.446;-2.606;2023-03-04T09:46:16;103169.67;;;6.11;58.02
69351;BME280;57106;51.446;-2.606;2023-03-04T09:48:43;103171.56;;;5.97;58.11
69351;BME280;57106;51.446;-2.606;2023-03-04T09:51:16;103175.42;;;5.99;58.09
69351;BME280;57106;51.446;-2.606;2023-03-04T09:53:35;103171.08;;;6.02;58.21
69351;BME280;57106;51.446;-2.606;2023-03-04T09:55:55;103168.34;;;6.13;57.87
69351;BME280;57106;51.446;-2.606;2023-03-04T09:58:28;103171.69;;;6.28;57.28
69351;BME280;57106;51.446;-2.606;2023-03-04T10:00:53;103166.99;;;6.33;57.02
69351;BME280;57106;51.446;-2.606;2023-03-04T10:03:16;103166.60;;;6.06;57.96
69351;BME280;57106;51.446;-2.606;2023-03-04T10:05:41;103166.57;;;5.75;58.59
69351;BME280;57106;51.446;-2.606;2023-03-04T10:08:16;103168.97;;;5.80;58.31
69351;BME280;57106;51.446;-2.606;2023-03-04T10:10:32;103168.95;;;5.80;58.23
69351;BME280;57106;51.446;-2.606;2023-03-04T10:12:55;103176.13;;;5.75;58.77
69351;BME280;57106;51.446;-2.606;2023-03-04T10:15:24;103173.94;;;5.88;58.32
69351;BME280;57106;51.446;-2.606;2023-03-04T10:17:48;103173.79;;;5.96;57.99
69351;BME280;57106;51.446;-2.606;2023-03-04T10:20:14;103165.83;;;5.69;58.80
69351;BME280;57106;51.446;-2.606;2023-03-04T10:22:43;103166.04;;;5.84;58.68
69351;BME280;57106;51.446;-2.606;2023-03-04T10:27:28;103164.21;;;5.92;58.03
69351;BME280;57106;51.446;-2.606;2023-03-04T10:29:53;103160.52;;;6.10;57.89
69351;BME280;57106;51.446;-2.606;2023-03-04T10:32:20;103161.94;;;5.92;57.99
69351;BME280;57106;51.446;-2.606;2023-03-04T10:34:59;103166.97;;;6.01;58.08
69351;BME280;57106;51.446;-2.606;2023-03-04T10:44:30;103149.24;;;6.57;56.54
69351;BME280;57106;51.446;-2.606;2023-03-04T10:46:57;103145.83;;;6.20;57.05
69351;BME280;57106;51.446;-2.606;2023-03-04T10:49:28;103149.68;;;6.39;57.16
69351;BME280;57106;51.446;-2.606;2023-03-04T10:51:45;103142.33;;;6.07;57.32
69351;BME280;57106;51.446;-2.606;2023-03-04T10:54:21;103144.38;;;5.86;57.57
69351;BME280;57106;51.446;-2.606;2023-03-04T10:56:37;103139.06;;;5.80;57.94
69351;BME280;57106;51.446;-2.606;2023-03-04T11:03:53;103136.11;;;6.39;56.72
69351;BME280;57106;51.446;-2.606;2023-03-04T11:06:20;103135.56;;;6.26;56.94
69351;BME280;57106;51.446;-2.606;2023-03-04T11:08:43;103128.76;;;6.43;56.75
69351;BME280;57106;51.446;-2.606;2023-03-04T11:11:22;103130.93;;;6.49;56.67
69351;BME280;57106;51.446;-2.606;2023-03-04T11:13:34;103131.99;;;6.24;56.99
69351;BME280;57106;51.446;-2.606;2023-03-04T11:16:02;103134.74;;;6.42;56.36
69351;BME280;57106;51.446;-2.606;2023-03-04T11:18:29;103132.62;;;6.42;56.30
69351;BME280;57106;51.446;-2.606;2023-03-04T11:20:52;103131.36;;;6.39;56.62
69351;BME280;57106;51.446;-2.606;2023-03-04T11:23:17;103130.17;;;6.16;56.74
69351;BME280;57106;51.446;-2.606;2023-03-04T11:25:43;103131.99;;;6.19;56.84
69351;BME280;57106;51.446;-2.606;2023-03-04T11:28:13;103139.03;;;6.03;57.06
69351;BME280;57106;51.446;-2.606;2023-03-04T11:30:37;103132.33;;;5.95;57.25
69351;BME280;57106;51.446;-2.606;2023-03-04T11:33:05;103128.76;;;6.03;56.94
69351;BME280;57106;51.446;-2.606;2023-03-04T11:35:26;103128.20;;;6.31;56.46
69351;BME280;57106;51.446;-2.606;2023-03-04T11:37:53;103124.69;;;6.09;56.84
69351;BME280;57106;51.446;-2.606;2023-03-04T11:40:17;103120.44;;;6.27;56.64
69351;BME280;57106;51.446;-2.606;2023-03-04T11:42:42;103113.10;;;6.39;56.36
69351;BME280;57106;51.446;-2.606;2023-03-04T11:45:10;103106.77;;;6.15;56.81
69351;BME280;57106;51.446;-2.606;2023-03-04T11:47:41;103100.34;;;6.07;57.21
69351;BME280;57106;51.446;-2.606;2023-03-04T11:50:06;103099.75;;;6.12;56.89
69351;BME280;57106;51.446;-2.606;2023-03-04T11:52:30;103099.38;;;6.17;56.80
69351;BME280;57106;51.446;-2.606;2023-03-04T11:54:55;103094.00;;;6.05;57.23
69351;BME280;57106;51.446;-2.606;2023-03-04T11:57:20;103093.85;;;6.02;57.27
69351;BME280;57106;51.446;-2.606;2023-03-04T11:59:47;103087.32;;;6.00;57.41
69351;BME280;57106;51.446;-2.606;2023-03-04T12:02:11;103081.16;;;5.98;57.15
69351;BME280;57106;51.446;-2.606;2023-03-04T12:04:40;103085.95;;;6.20;56.51
69351;BME280;57106;51.446;-2.606;2023-03-04T12:07:05;103087.10;;;6.14;56.77
69351;BME280;57106;51.446;-2.606;2023-03-04T12:09:32;103079.02;;;6.40;56.11
69351;BME280;57106;51.446;-2.606;2023-03-04T12:11:49;103076.57;;;6.33;56.00
69351;BME280;57106;51.446;-2.606;2023-03-04T12:14:19;103075.90;;;6.37;55.85
69351;BME280;57106;51.446;-2.606;2023-03-04T12:16:47;103078.61;;;6.38;56.14
69351;BME280;57106;51.446;-2.606;2023-03-04T12:19:14;103076.96;;;6.78;55.18
69351;BME280;57106;51.446;-2.606;2023-03-04T12:21:43;103071.06;;;6.61;55.68
69351;BME280;57106;51.446;-2.606;2023-03-04T12:26:23;103070.27;;;6.39;55.71
69351;BME280;57106;51.446;-2.606;2023-03-04T12:28:49;103066.39;;;6.51;55.77
69351;BME280;57106;51.446;-2.606;2023-03-04T12:31:24;103068.22;;;7.09;54.14
69351;BME280;57106;51.446;-2.606;2023-03-04T12:33:40;103066.03;;;7.01;54.45
69351;BME280;57106;51.446;-2.606;2023-03-04T12:36:05;103059.80;;;6.85;54.65
69351;BME280;57106;51.446;-2.606;2023-03-04T12:38:34;103057.21;;;6.85;54.99
69351;BME280;57106;51.446;-2.606;2023-03-04T12:40:55;103060.04;;;7.10;54.21
69351;BME280;57106;51.446;-2.606;2023-03-04T12:43:26;103054.64;;;6.70;54.53
69351;BME280;57106;51.446;-2.606;2023-03-04T12:45:48;103055.02;;;6.97;54.56
69351;BME280;57106;51.446;-2.606;2023-03-04T12:48:10;103058.19;;;7.07;54.25
69351;BME280;57106;51.446;-2.606;2023-03-04T12:50:36;103056.40;;;6.56;54.93
69351;BME280;57106;51.446;-2.606;2023-03-04T12:53:03;103051.96;;;6.74;54.67
69351;BME280;57106;51.446;-2.606;2023-03-04T12:55:25;103049.78;;;6.90;54.12
69351;BME280;57106;51.446;-2.606;2023-03-04T13:02:50;103031.88;;;7.46;53.05
69351;BME280;57106;51.446;-2.606;2023-03-04T13:05:17;103028.37;;;7.59;52.77
69351;BME280;57106;51.446;-2.606;2023-03-04T13:07:38;103029.95;;;7.24;53.61
69351;BME280;57106;51.446;-2.606;2023-03-04T13:10:00;103026.96;;;7.28;53.64
69351;BME280;57106;51.446;-2.606;2023-03-04T13:19:46;103019.60;;;6.79;54.70
69351;BME280;57106;51.446;-2.606;2023-03-04T13:26:53;103012.68;;;6.69;54.96
69351;BME280;57106;51.446;-2.606;2023-03-04T13:29:30;103002.45;;;6.48;55.33
69351;BME280;57106;51.446;-2.606;2023-03-04T13:31:58;103000.36;;;6.56;55.33
69351;BME280;57106;51.446;-2.606;2023-03-04T13:41:29;102989.46;;;6.78;54.83
69351;BME280;57106;51.446;-2.606;2023-03-04T13:43:52;102986.23;;;6.72;55.34
69351;BME280;57106;51.446;-2.606;2023-03-04T13:46:28;102980.82;;;7.09;54.51